Terminal Aerodrome Forecast
Issued by NWS Shreveport, LA

Home | Current Version | Previous Version | Text Only | Print | Product List | Glossary On
Versions: 1 2 3 4 5 6 7 8 9 10 11 12 13 14 15
935
FTUS44 KSHV 221720
TAFTXK
TAF
KTXK 221720Z 2218/2318 30015G25KT P6SM VCSH OVC080
      TEMPO 2218/2222 32020G35KT P6SM -TSRA BKN030CB OVC050
     FM222200 32020G35KT P6SM VCTS BKN030CB OVC050
     FM230200 31015G25KT P6SM BKN030 OVC050
     FM230600 32012G20KT P6SM SCT035 BKN050
     FM230900 32010KT P6SM SKC
     FM231400 32010KT P6SM SKC=

USA.gov is the U.S. government's official web portal to all federal, state and local government web resources and services.